Time;durP1;ratioP1;P1;durP2;ratioP2;P2;SDS_P1;SDS_P2;PMS_P1;PMS_P2;Temp;Humidity;BMP_temperature;BMP_pressure;BME280_temperature;BME280_humidity;BME280_pressure;Samples;Min_cycle;Max_cycle;Signal;HPM_P1;HPM_P2
2024/01/09 00:01:01;;;;;;;8.88;6.38;;;11.20;91.40;;;;;;5097953;28;20386;-43
2024/01/09 00:03:27;;;;;;;10.00;5.97;;;11.20;91.50;;;;;;5098191;28;20431;-44
2024/01/09 00:05:53;;;;;;;9.07;5.85;;;11.10;91.60;;;;;;5098983;28;20110;-44
2024/01/09 00:08:18;;;;;;;8.20;5.85;;;11.00;91.70;;;;;;5098082;28;20028;-43
2024/01/09 00:10:44;;;;;;;9.13;6.00;;;11.00;91.80;;;;;;5098355;28;20024;-44
2024/01/09 00:13:10;;;;;;;8.27;5.65;;;10.90;91.90;;;;;;5097742;28;20028;-44
2024/01/09 00:15:35;;;;;;;8.15;5.80;;;10.90;92.00;;;;;;5099239;28;20023;-42
2024/01/09 00:18:01;;;;;;;9.38;6.07;;;10.80;92.00;;;;;;5097583;28;20016;-43
2024/01/09 00:20:26;;;;;;;7.85;5.97;;;10.70;92.10;;;;;;5098164;28;20027;-44
2024/01/09 00:22:52;;;;;;;8.30;5.78;;;10.70;92.20;;;;;;5097646;28;20544;-44
2024/01/09 00:25:18;;;;;;;9.52;6.05;;;10.60;92.20;;;;;;5098151;28;20028;-44
2024/01/09 00:27:47;;;;;;;10.48;6.93;;;10.50;92.70;;;;;;5097553;28;20371;-42
2024/01/09 00:30:13;;;;;;;9.80;6.40;;;10.60;93.10;;;;;;5097430;28;20535;-42
2024/01/09 00:32:38;;;;;;;8.48;6.47;;;11.00;92.90;;;;;;5097823;28;20036;-38
2024/01/09 00:35:07;;;;;;;9.82;6.55;;;11.50;92.40;;;;;;5098115;28;20086;-43
2024/01/09 00:37:33;;;;;;;10.07;6.22;;;11.80;91.30;;;;;;5097487;28;20099;-41
2024/01/09 00:39:58;;;;;;;9.23;6.53;;;11.90;90.80;;;;;;5097782;28;20561;-44
2024/01/09 00:42:24;;;;;;;9.00;6.22;;;11.90;90.70;;;;;;5097533;28;20074;-44
2024/01/09 00:44:50;;;;;;;8.68;6.15;;;11.80;90.60;;;;;;5098020;28;20071;-44
2024/01/09 00:47:15;;;;;;;8.38;6.57;;;11.80;90.70;;;;;;5097448;28;20063;-43
2024/01/09 00:49:44;;;;;;;8.88;6.20;;;11.70;90.70;;;;;;5097266;28;20024;-44
2024/01/09 00:52:09;;;;;;;8.52;5.80;;;11.70;90.80;;;;;;5093963;28;20046;-44
2024/01/09 00:54:35;;;;;;;10.57;6.38;;;11.70;90.90;;;;;;5094116;28;20028;-43
2024/01/09 00:57:01;;;;;;;8.40;5.93;;;11.50;91.30;;;;;;5094425;28;20042;-44
2024/01/09 00:59:26;;;;;;;8.90;5.68;;;11.60;91.50;;;;;;5094207;28;20028;-44
2024/01/09 01:01:52;;;;;;;9.50;6.43;;;11.90;91.10;;;;;;5094238;28;20044;-43
2024/01/09 01:04:18;;;;;;;9.15;6.80;;;12.10;90.50;;;;;;5093718;28;20550;-42
2024/01/09 01:06:45;;;;;;;8.82;6.47;;;12.10;90.20;;;;;;5094687;28;20020;-41
2024/01/09 01:09:11;;;;;;;8.88;6.35;;;12.00;90.20;;;;;;5093894;28;20035;-42
2024/01/09 01:11:37;;;;;;;8.52;5.47;;;11.90;90.30;;;;;;5093928;28;20032;-44
2024/01/09 01:14:03;;;;;;;10.02;6.32;;;11.90;90.40;;;;;;5093842;28;20050;-44
2024/01/09 01:16:29;;;;;;;9.20;6.15;;;11.80;90.40;;;;;;5093670;28;20070;-44
2024/01/09 01:18:55;;;;;;;9.90;6.15;;;11.70;90.50;;;;;;5093632;28;20028;-43
2024/01/09 01:21:22;;;;;;;10.20;6.45;;;11.60;91.00;;;;;;5095255;28;20026;-44
2024/01/09 01:23:47;;;;;;;9.70;6.35;;;11.70;91.20;;;;;;5093515;28;20451;-43
2024/01/09 01:26:13;;;;;;;12.52;6.70;;;12.00;90.70;;;;;;5094838;28;20632;-44
2024/01/09 01:28:40;;;;;;;10.68;6.15;;;12.10;90.50;;;;;;5094413;28;20032;-44
2024/01/09 01:31:05;;;;;;;10.48;6.55;;;12.10;89.90;;;;;;5093549;28;20024;-43
2024/01/09 01:33:31;;;;;;;8.18;6.15;;;12.00;90.00;;;;;;5093399;28;20466;-41
2024/01/09 01:35:56;;;;;;;8.45;6.00;;;11.90;90.00;;;;;;5093129;28;20053;-43
2024/01/09 01:38:22;;;;;;;8.30;5.70;;;11.80;90.00;;;;;;5093300;28;20035;-42
2024/01/09 01:40:48;;;;;;;7.75;5.55;;;11.80;90.10;;;;;;5093663;28;20497;-44
2024/01/09 01:43:13;;;;;;;9.23;6.63;;;11.70;90.20;;;;;;5093422;28;20162;-44
2024/01/09 01:45:39;;;;;;;8.50;5.90;;;11.60;90.70;;;;;;5093333;28;20406;-44
2024/01/09 01:48:05;;;;;;;9.18;7.07;;;11.70;90.90;;;;;;5092944;28;20035;-43
2024/01/09 01:50:32;;;;;;;10.10;6.55;;;12.00;90.40;;;;;;5093028;28;20038;-44
2024/01/09 01:53:00;;;;;;;10.25;6.55;;;12.10;89.80;;;;;;5093026;28;20020;-44
2024/01/09 01:55:27;;;;;;;8.68;6.57;;;12.10;89.40;;;;;;5092879;28;20020;-44
2024/01/09 01:57:54;;;;;;;10.43;6.45;;;12.00;89.50;;;;;;5092874;28;20020;-44
2024/01/09 02:00:21;;;;;;;7.65;5.93;;;11.90;89.60;;;;;;5092977;28;20055;-42
2024/01/09 02:02:50;;;;;;;9.93;6.57;;;11.80;89.70;;;;;;5092406;28;20046;-43
2024/01/09 02:05:20;;;;;;;7.82;5.85;;;11.80;90.30;;;;;;5092875;28;20051;-44
2024/01/09 02:07:51;;;;;;;8.98;6.43;;;11.70;90.00;;;;;;5092964;28;20028;-44
2024/01/09 02:10:17;;;;;;;8.82;6.60;;;11.60;90.60;;;;;;5092790;28;20027;-44
2024/01/09 02:12:43;;;;;;;9.85;6.40;;;11.80;90.70;;;;;;5092668;28;20035;-44
2024/01/09 02:15:09;;;;;;;10.23;6.70;;;12.10;90.20;;;;;;5092524;28;20024;-44
2024/01/09 02:17:36;;;;;;;9.95;6.40;;;12.10;89.40;;;;;;5092785;28;20052;-43
2024/01/09 02:20:10;;;;;;;9.80;6.30;;;12.00;89.10;;;;;;5092699;28;20385;-44
2024/01/09 02:22:35;;;;;;;10.10;5.75;;;12.00;89.20;;;;;;5091197;28;20028;-44
2024/01/09 02:25:02;;;;;;;9.52;6.20;;;11.90;89.30;;;;;;5092378;28;20043;-43
2024/01/09 02:27:59;;;;;;;9.00;6.20;;;11.80;89.50;;;;;;5092269;28;20028;-44
2024/01/09 02:30:25;;;;;;;9.50;6.32;;;11.70;89.70;;;;;;5092424;28;20026;-44
2024/01/09 02:32:51;;;;;;;7.55;5.78;;;11.60;90.30;;;;;;5092203;28;20098;-44
2024/01/09 02:35:17;;;;;;;9.75;6.78;;;11.60;90.60;;;;;;5092218;28;20092;-44
2024/01/09 02:37:43;;;;;;;9.15;6.45;;;11.90;90.50;;;;;;5092697;28;20478;-44
2024/01/09 02:40:08;;;;;;;10.23;6.93;;;12.10;89.70;;;;;;5070982;28;20425;-44
2024/01/09 02:42:34;;;;;;;9.38;6.57;;;12.10;89.10;;;;;;5092095;28;20103;-44
2024/01/09 02:45:00;;;;;;;8.93;6.80;;;12.00;88.90;;;;;;5092120;28;20382;-43
2024/01/09 02:47:27;;;;;;;8.80;6.47;;;11.90;89.00;;;;;;5091991;28;20022;-44
2024/01/09 02:49:52;;;;;;;10.40;6.38;;;11.80;89.10;;;;;;5092117;28;20032;-44
2024/01/09 02:52:18;;;;;;;9.55;6.60;;;11.80;89.40;;;;;;5091980;28;20505;-44
2024/01/09 02:54:44;;;;;;;10.45;7.03;;;11.70;89.60;;;;;;5091696;28;20036;-44
2024/01/09 02:57:11;;;;;;;10.90;6.70;;;11.50;90.20;;;;;;5091876;28;20024;-44
2024/01/09 02:59:37;;;;;;;9.88;6.82;;;11.60;90.50;;;;;;5091987;28;20020;-44
2024/01/09 03:02:03;;;;;;;10.10;6.85;;;11.90;90.30;;;;;;5091799;28;20374;-44
2024/01/09 03:04:28;;;;;;;9.40;6.65;;;12.00;89.10;;;;;;5091789;28;20417;-42
2024/01/09 03:06:54;;;;;;;9.35;6.93;;;12.00;88.60;;;;;;5091644;28;20403;-44
2024/01/09 03:09:19;;;;;;;9.23;6.80;;;11.90;88.50;;;;;;5091667;28;20105;-44
2024/01/09 03:11:45;;;;;;;8.77;6.68;;;11.80;88.70;;;;;;5091581;28;20020;-44
2024/01/09 03:14:12;;;;;;;8.80;6.32;;;11.80;88.90;;;;;;5091144;28;20382;-44
2024/01/09 03:16:37;;;;;;;9.52;6.45;;;11.70;89.10;;;;;;5091458;28;20031;-42
2024/01/09 03:19:03;;;;;;;11.10;7.13;;;11.60;89.30;;;;;;5091470;28;20365;-44
2024/01/09 03:21:29;;;;;;;9.90;6.35;;;11.50;90.10;;;;;;5091926;28;20028;-43
2024/01/09 03:23:54;;;;;;;8.88;6.68;;;11.60;90.50;;;;;;5091806;28;20111;-44
2024/01/09 03:26:21;;;;;;;10.27;6.95;;;11.80;90.20;;;;;;5092283;28;20490;-44
2024/01/09 03:28:47;;;;;;;10.07;7.18;;;12.00;89.00;;;;;;5091605;28;20443;-43
2024/01/09 03:31:23;;;;;;;9.75;6.85;;;12.00;88.40;;;;;;5091831;28;20028;-44
2024/01/09 03:33:49;;;;;;;9.95;6.85;;;11.90;88.30;;;;;;5091226;28;20016;-44
2024/01/09 03:36:16;;;;;;;10.10;6.60;;;11.80;88.50;;;;;;5091306;28;20035;-43
2024/01/09 03:38:42;;;;;;;9.60;6.70;;;11.70;88.70;;;;;;5091486;28;20513;-43
2024/01/09 03:41:08;;;;;;;10.07;6.75;;;11.60;88.80;;;;;;5091321;28;20471;-43
2024/01/09 03:43:34;;;;;;;11.00;7.00;;;11.60;89.10;;;;;;5091217;28;20064;-44
2024/01/09 03:46:00;;;;;;;9.50;6.40;;;11.50;90.10;;;;;;5091391;28;20079;-44
2024/01/09 03:48:25;;;;;;;10.35;7.05;;;11.60;90.30;;;;;;5092286;28;20052;-44
2024/01/09 03:50:51;;;;;;;9.63;7.10;;;11.90;89.70;;;;;;5091296;28;20107;-43
2024/01/09 03:53:17;;;;;;;10.55;6.68;;;12.00;88.60;;;;;;5091210;28;20103;-44
2024/01/09 03:55:42;;;;;;;9.73;6.53;;;11.90;88.20;;;;;;5091138;28;20115;-44
2024/01/09 03:58:08;;;;;;;10.00;6.85;;;11.80;88.20;;;;;;5091150;28;20024;-44
2024/01/09 04:00:34;;;;;;;9.80;6.82;;;11.80;88.30;;;;;;5091728;28;20020;-44
2024/01/09 04:03:03;;;;;;;9.57;6.80;;;11.70;88.60;;;;;;5091258;28;20509;-44
2024/01/09 04:05:29;;;;;;;11.68;7.60;;;11.60;88.80;;;;;;5093425;28;20020;-44
2024/01/09 04:07:54;;;;;;;10.35;6.72;;;11.50;89.40;;;;;;5091192;28;20101;-43
2024/01/09 04:10:20;;;;;;;9.98;6.78;;;11.40;90.20;;;;;;5091034;28;20554;-44
2024/01/09 04:12:46;;;;;;;10.73;7.70;;;11.70;90.40;;;;;;5090990;28;20070;-44
2024/01/09 04:15:11;;;;;;;10.45;7.22;;;11.90;89.40;;;;;;5090813;28;20306;-44
2024/01/09 04:17:38;;;;;;;10.02;7.05;;;12.00;88.40;;;;;;5090887;28;20020;-44
2024/01/09 04:20:05;;;;;;;9.68;6.80;;;11.90;88.10;;;;;;5090924;28;20024;-44
2024/01/09 04:22:30;;;;;;;8.73;6.32;;;11.90;88.10;;;;;;5090862;28;20025;-43
2024/01/09 04:24:56;;;;;;;9.93;6.70;;;11.80;88.30;;;;;;5090811;28;20036;-44
2024/01/09 04:27:22;;;;;;;8.43;6.60;;;11.70;88.40;;;;;;5093792;28;20123;-44
2024/01/09 04:29:48;;;;;;;10.68;7.45;;;11.60;88.60;;;;;;5094506;28;20036;-44
2024/01/09 04:32:13;;;;;;;10.15;7.03;;;11.50;89.40;;;;;;5094781;28;20020;-44
2024/01/09 04:34:39;;;;;;;9.55;6.47;;;11.40;90.10;;;;;;5094723;28;20066;-44
2024/01/09 04:37:05;;;;;;;10.35;7.22;;;11.70;90.20;;;;;;5094536;28;20111;-44
2024/01/09 04:39:30;;;;;;;10.65;7.18;;;11.90;88.70;;;;;;5094431;28;20062;-42
2024/01/09 04:41:56;;;;;;;10.63;7.00;;;11.90;88.00;;;;;;5094446;28;20054;-44
2024/01/09 04:44:22;;;;;;;11.85;7.00;;;11.90;87.70;;;;;;5094292;28;20020;-44
2024/01/09 04:46:48;;;;;;;9.95;6.63;;;11.80;87.90;;;;;;5094531;28;20020;-44
2024/01/09 04:49:13;;;;;;;9.02;6.38;;;11.70;88.10;;;;;;5094286;28;20545;-44
2024/01/09 04:51:40;;;;;;;10.63;6.68;;;11.60;88.30;;;;;;5094305;28;20028;-44
2024/01/09 04:54:05;;;;;;;9.75;6.95;;;11.60;88.60;;;;;;5094313;28;20055;-44
2024/01/09 04:56:31;;;;;;;12.10;7.05;;;11.40;89.60;;;;;;5094100;28;20055;-44
2024/01/09 04:58:57;;;;;;;9.35;6.68;;;11.50;90.20;;;;;;5094006;28;20389;-44
2024/01/09 05:01:22;;;;;;;10.77;7.20;;;11.80;89.90;;;;;;5094408;28;20235;-44
2024/01/09 05:03:50;;;;;;;8.48;6.65;;;11.90;88.40;;;;;;5094001;28;20028;-44
2024/01/09 05:06:19;;;;;;;9.45;6.90;;;11.90;87.90;;;;;;5093985;28;20498;-44
2024/01/09 05:08:46;;;;;;;10.45;6.30;;;11.80;87.90;;;;;;5093936;28;20036;-44
2024/01/09 05:11:11;;;;;;;9.40;6.75;;;11.70;88.10;;;;;;5093934;28;20052;-44
2024/01/09 05:13:37;;;;;;;8.88;6.22;;;11.70;88.30;;;;;;5093782;28;20453;-44
2024/01/09 05:16:04;;;;;;;8.77;6.05;;;11.60;88.40;;;;;;5093699;28;20120;-44
2024/01/09 05:18:30;;;;;;;10.35;6.90;;;11.50;88.60;;;;;;5093683;28;20044;-44
2024/01/09 05:20:55;;;;;;;10.27;7.28;;;11.40;89.80;;;;;;5094097;28;20107;-44
2024/01/09 05:23:21;;;;;;;10.40;6.78;;;11.60;90.00;;;;;;5093515;28;20470;-44
2024/01/09 05:25:47;;;;;;;9.48;6.32;;;11.80;89.00;;;;;;5093653;28;20039;-44
2024/01/09 05:28:15;;;;;;;9.57;6.57;;;11.90;88.10;;;;;;5093330;28;20074;-42
2024/01/09 05:30:41;;;;;;;10.55;7.07;;;11.80;87.60;;;;;;5093628;28;20035;-44
2024/01/09 05:33:07;;;;;;;10.05;7.13;;;11.80;87.60;;;;;;5093468;28;20035;-44
2024/01/09 05:35:32;;;;;;;13.15;7.50;;;11.70;87.80;;;;;;5092017;28;20024;-44
2024/01/09 05:37:58;;;;;;;9.52;6.53;;;11.60;88.00;;;;;;5092738;28;20055;-44
2024/01/09 05:40:24;;;;;;;10.70;7.43;;;11.60;88.20;;;;;;5093717;28;20060;-44
2024/01/09 05:42:49;;;;;;;12.02;7.63;;;11.40;88.90;;;;;;5093141;28;20027;-44
2024/01/09 05:45:15;;;;;;;12.25;7.05;;;11.40;89.90;;;;;;5093279;28;20141;-44
2024/01/09 05:47:41;;;;;;;11.13;7.03;;;11.70;89.80;;;;;;5091921;28;20024;-44
2024/01/09 05:50:08;;;;;;;12.07;7.53;;;11.90;88.10;;;;;;5093162;28;20043;-44
2024/01/09 05:52:38;;;;;;;9.55;7.20;;;11.90;87.40;;;;;;5093385;28;20032;-44
2024/01/09 05:55:04;;;;;;;10.68;6.90;;;11.90;87.30;;;;;;5095539;28;20046;-44
2024/01/09 05:57:30;;;;;;;10.30;6.60;;;11.80;87.40;;;;;;5092969;28;20024;-44
2024/01/09 05:59:56;;;;;;;10.77;6.97;;;11.70;87.50;;;;;;5093703;28;20035;-44
2024/01/09 06:02:22;;;;;;;9.88;6.75;;;11.60;87.70;;;;;;5094616;28;20032;-44
2024/01/09 06:04:47;;;;;;;15.43;7.20;;;11.50;87.90;;;;;;5092697;28;20028;-43
2024/01/09 06:07:15;;;;;;;12.13;7.07;;;11.40;88.90;;;;;;5092890;28;20051;-44
2024/01/09 06:09:41;;;;;;;11.02;6.53;;;11.50;89.70;;;;;;5091419;28;20106;-44
2024/01/09 06:12:06;;;;;;;10.98;7.32;;;11.80;88.80;;;;;;5092651;28;20496;-44
2024/01/09 06:14:32;;;;;;;11.60;7.47;;;11.90;87.40;;;;;;5092659;28;20030;-40
2024/01/09 06:16:58;;;;;;;10.05;7.05;;;11.90;87.00;;;;;;5092969;28;20047;-44
2024/01/09 06:19:23;;;;;;;11.48;6.90;;;11.80;87.00;;;;;;5092396;28;20107;-44
2024/01/09 06:21:49;;;;;;;9.45;6.88;;;11.70;87.20;;;;;;5093351;28;20020;-42
2024/01/09 06:24:15;;;;;;;11.27;6.90;;;11.60;87.30;;;;;;5092739;28;20032;-43
2024/01/09 06:26:40;;;;;;;9.50;6.25;;;11.60;87.60;;;;;;5092655;28;20526;-43
2024/01/09 06:29:06;;;;;;;9.85;6.75;;;11.50;87.70;;;;;;5092361;28;20385;-44
2024/01/09 06:31:32;;;;;;;12.00;7.57;;;11.40;88.90;;;;;;5092378;28;20020;-44
2024/01/09 06:33:58;;;;;;;10.15;7.38;;;11.60;89.50;;;;;;5092393;28;20630;-43
2024/01/09 06:36:24;;;;;;;10.63;7.07;;;11.80;88.10;;;;;;5092375;28;20039;-44
2024/01/09 06:39:13;;;;;;;9.32;6.57;;;11.90;87.00;;;;;;5092970;28;20020;-42
2024/01/09 06:41:38;;;;;;;9.55;6.72;;;11.90;86.70;;;;;;5092726;28;20020;-44
2024/01/09 06:44:04;;;;;;;9.68;6.53;;;11.70;86.70;;;;;;5092074;28;20362;-44
2024/01/09 06:46:30;;;;;;;9.75;6.47;;;11.60;86.90;;;;;;5091951;28;20032;-42
2024/01/09 06:48:56;;;;;;;12.00;6.72;;;11.60;87.10;;;;;;5091463;28;20024;-44
2024/01/09 06:51:21;;;;;;;11.45;7.35;;;11.50;87.30;;;;;;5092031;28;20020;-44
2024/01/09 06:53:47;;;;;;;11.30;8.02;;;11.40;88.30;;;;;;5091986;28;20041;-41
2024/01/09 06:56:13;;;;;;;12.77;8.27;;;11.40;88.90;;;;;;5091803;28;20022;-41
2024/01/09 06:58:39;;;;;;;11.98;7.97;;;11.70;88.60;;;;;;5091787;28;20028;-40
2024/01/09 07:01:06;;;;;;;10.13;7.43;;;11.80;87.20;;;;;;5091711;28;20024;-40
2024/01/09 07:03:31;;;;;;;13.82;7.88;;;11.90;86.70;;;;;;5091793;28;20470;-42
2024/01/09 07:05:57;;;;;;;12.73;8.65;;;11.80;86.50;;;;;;5091688;28;20036;-40
2024/01/09 07:08:22;;;;;;;13.10;8.10;;;11.70;86.70;;;;;;5090468;28;20028;-38
2024/01/09 07:10:48;;;;;;;10.80;7.82;;;11.60;86.90;;;;;;5091620;28;20024;-43
2024/01/09 07:13:14;;;;;;;12.98;8.02;;;11.50;87.10;;;;;;5091547;28;20046;-40
2024/01/09 07:15:39;;;;;;;13.00;8.38;;;11.40;87.30;;;;;;5091604;28;20099;-41
2024/01/09 07:18:05;;;;;;;12.18;8.02;;;11.30;88.70;;;;;;5091479;28;20474;-39
2024/01/09 07:20:30;;;;;;;12.45;8.60;;;11.50;89.10;;;;;;5091872;28;20488;-40
2024/01/09 07:22:56;;;;;;;10.35;7.65;;;11.80;87.80;;;;;;5091525;28;20020;-38
2024/01/09 07:25:22;;;;;;;12.90;7.82;;;11.90;86.80;;;;;;5091363;28;20402;-41
2024/01/09 07:27:47;;;;;;;10.00;6.97;;;11.80;86.30;;;;;;5094628;28;20482;-37
2024/01/09 07:30:13;;;;;;;12.30;7.90;;;11.70;86.30;;;;;;5091320;28;20035;-41
2024/01/09 07:32:39;;;;;;;10.20;7.43;;;11.60;86.60;;;;;;5091445;28;20020;-40
2024/01/09 07:35:06;;;;;;;10.05;7.30;;;11.60;87.00;;;;;;5091310;28;20020;-43
2024/01/09 07:37:31;;;;;;;13.13;7.97;;;11.60;87.30;;;;;;5091310;28;20103;-41
2024/01/09 07:39:57;;;;;;;12.18;7.80;;;11.50;88.00;;;;;;5091158;28;20095;-42
2024/01/09 07:42:22;;;;;;;11.88;8.50;;;11.60;88.50;;;;;;5091211;28;20394;-41
2024/01/09 07:44:48;;;;;;;11.73;7.90;;;11.80;88.30;;;;;;5091368;28;20028;-40
2024/01/09 07:47:13;;;;;;;10.00;7.30;;;12.10;86.70;;;;;;5091186;28;20024;-43
2024/01/09 07:49:39;;;;;;;12.40;7.65;;;12.20;86.10;;;;;;5091210;28;20031;-41
2024/01/09 07:52:05;;;;;;;9.55;6.85;;;12.20;86.00;;;;;;5091236;28;20420;-42
2024/01/09 07:54:31;;;;;;;10.23;6.90;;;12.20;86.10;;;;;;5091142;28;20073;-43
2024/01/09 07:56:56;;;;;;;11.48;6.75;;;12.20;86.10;;;;;;5091001;28;20032;-41
2024/01/09 07:59:22;;;;;;;9.25;6.20;;;12.20;86.10;;;;;;5091291;28;20050;-37
2024/01/09 08:01:55;;;;;;;10.60;7.50;;;12.30;86.10;;;;;;5095296;28;20541;-42
2024/01/09 08:04:22;;;;;;;12.00;7.85;;;12.30;86.40;;;;;;5095660;28;20102;-44
2024/01/09 08:06:50;;;;;;;9.75;7.22;;;12.30;86.80;;;;;;5095664;28;20073;-44
2024/01/09 08:09:17;;;;;;;10.10;7.07;;;12.60;86.60;;;;;;5095049;28;20074;-44
2024/01/09 08:11:43;;;;;;;10.82;7.60;;;12.80;85.10;;;;;;5095678;28;20447;-44
2024/01/09 08:14:09;;;;;;;10.00;6.95;;;12.80;84.50;;;;;;5095888;28;20056;-44
2024/01/09 08:16:34;;;;;;;10.32;6.85;;;12.80;84.40;;;;;;5095013;28;20028;-44
2024/01/09 08:19:00;;;;;;;11.75;7.53;;;12.90;84.40;;;;;;5095089;28;20059;-43
2024/01/09 08:21:26;;;;;;;8.27;5.95;;;12.90;84.40;;;;;;5094802;28;20065;-42
2024/01/09 08:23:52;;;;;;;9.95;6.50;;;12.90;84.40;;;;;;5094682;28;20035;-44
2024/01/09 08:26:17;;;;;;;11.30;6.65;;;13.00;84.40;;;;;;5094952;28;20027;-44
2024/01/09 08:28:43;;;;;;;10.93;7.10;;;13.00;84.90;;;;;;5095064;28;20081;-44
2024/01/09 08:31:08;;;;;;;12.40;7.07;;;12.90;85.60;;;;;;5094672;28;20481;-44
2024/01/09 08:33:34;;;;;;;10.93;7.45;;;13.20;85.80;;;;;;5094545;28;20073;-44
2024/01/09 08:36:01;;;;;;;10.77;7.10;;;13.40;84.40;;;;;;5094344;28;20077;-42
2024/01/09 08:38:27;;;;;;;10.57;7.32;;;13.50;83.90;;;;;;5092996;28;20028;-44
2024/01/09 08:40:55;;;;;;;9.50;6.50;;;13.50;84.60;;;;;;5094682;28;20016;-43
2024/01/09 08:43:21;;;;;;;10.57;6.38;;;13.50;83.80;;;;;;5094672;28;20031;-44
2024/01/09 08:45:48;;;;;;;10.15;6.13;;;13.60;83.80;;;;;;5068279;28;20101;-44
2024/01/09 08:48:14;;;;;;;9.88;6.68;;;13.60;83.80;;;;;;5093876;28;20027;-44
2024/01/09 08:50:39;;;;;;;10.68;6.15;;;13.60;83.90;;;;;;5094808;28;20024;-44
2024/01/09 08:53:05;;;;;;;10.30;6.55;;;13.60;83.90;;;;;;5095377;28;20036;-44
2024/01/09 08:55:31;;;;;;;9.13;6.43;;;13.60;84.70;;;;;;5094756;28;20097;-44
2024/01/09 08:57:56;;;;;;;10.90;7.30;;;13.70;85.30;;;;;;5094137;28;20023;-44
2024/01/09 09:00:22;;;;;;;8.57;6.07;;;14.00;84.30;;;;;;5094280;28;20035;-39
2024/01/09 09:02:48;;;;;;;10.27;6.53;;;14.10;83.50;;;;;;5095221;28;20432;-44
2024/01/09 09:05:14;;;;;;;9.93;6.20;;;14.10;83.30;;;;;;5094199;28;20036;-44
2024/01/09 09:07:39;;;;;;;9.20;5.85;;;14.10;83.30;;;;;;5093921;28;20028;-44
2024/01/09 09:10:05;;;;;;;8.48;5.80;;;14.20;83.30;;;;;;5094204;28;20107;-42
2024/01/09 09:12:31;;;;;;;8.68;6.05;;;14.30;83.20;;;;;;5093014;28;20396;-44
2024/01/09 09:14:56;;;;;;;9.65;5.90;;;14.30;83.20;;;;;;5093799;28;20028;-41
2024/01/09 09:17:22;;;;;;;8.13;5.60;;;14.40;83.20;;;;;;5094268;28;20066;-44
2024/01/09 09:19:48;;;;;;;9.48;6.53;;;14.40;83.20;;;;;;5093601;28;20024;-44
2024/01/09 09:22:13;;;;;;;8.93;6.18;;;14.30;83.80;;;;;;5093664;28;20035;-45
2024/01/09 09:24:39;;;;;;;10.45;6.40;;;14.20;83.40;;;;;;5094219;28;20031;-43
2024/01/09 09:27:06;;;;;;;9.40;6.45;;;14.20;83.50;;;;;;5093915;28;20049;-40
2024/01/09 09:29:31;;;;;;;8.68;5.90;;;14.30;83.50;;;;;;5094039;28;20024;-44
2024/01/09 09:31:57;;;;;;;9.18;6.38;;;14.40;83.30;;;;;;5093578;28;20024;-44
2024/01/09 09:34:23;;;;;;;8.57;5.97;;;14.50;83.10;;;;;;5074714;28;20462;-41
2024/01/09 09:36:48;;;;;;;8.35;5.45;;;14.50;83.00;;;;;;5093358;28;20519;-43
2024/01/09 09:39:14;;;;;;;7.85;5.60;;;14.50;83.00;;;;;;5094038;28;20024;-43
2024/01/09 09:41:43;;;;;;;8.82;5.85;;;14.60;83.00;;;;;;5093451;28;20122;-43
2024/01/09 09:44:13;;;;;;;9.98;6.07;;;14.60;82.90;;;;;;5093461;28;20012;-44
2024/01/09 09:46:41;;;;;;;8.43;5.50;;;14.60;82.90;;;;;;5093094;28;20039;-43
2024/01/09 09:49:08;;;;;;;8.82;6.05;;;14.70;82.90;;;;;;5093122;28;20038;-43
2024/01/09 09:51:35;;;;;;;8.43;5.78;;;14.70;82.80;;;;;;5093219;28;20054;-41
2024/01/09 09:54:03;;;;;;;7.80;5.38;;;14.70;82.80;;;;;;5093172;28;20099;-44
2024/01/09 09:56:29;;;;;;;9.27;5.88;;;14.80;82.80;;;;;;5094148;28;20066;-43
2024/01/09 09:58:55;;;;;;;7.93;5.22;;;14.80;82.70;;;;;;5094462;28;20036;-44
2024/01/09 10:01:23;;;;;;;9.02;5.57;;;14.80;82.60;;;;;;5092842;28;20064;-41
2024/01/09 10:04:24;;;;;;;7.53;5.70;;;14.80;82.60;;;;;;5092790;28;20020;-43
2024/01/09 10:06:54;;;;;;;8.70;5.35;;;14.90;83.40;;;;;;5093328;28;20385;-43
2024/01/09 10:09:20;;;;;;;10.07;6.03;;;14.90;82.60;;;;;;5093644;28;20059;-43
2024/01/09 10:11:49;;;;;;;8.85;5.40;;;14.90;82.50;;;;;;5092832;28;20035;-43
2024/01/09 10:14:15;;;;;;;9.85;5.75;;;14.90;82.40;;;;;;5093272;28;20052;-44
2024/01/09 10:16:55;;;;;;;8.55;5.40;;;15.00;82.40;;;;;;5092700;28;20043;-42
2024/01/09 10:19:22;;;;;;;7.90;5.28;;;15.00;82.30;;;;;;5093666;28;20359;-43
2024/01/09 10:21:48;;;;;;;7.97;5.40;;;15.10;82.40;;;;;;5093339;28;20012;-41
2024/01/09 10:24:15;;;;;;;7.10;5.03;;;15.10;82.30;;;;;;5092438;28;20032;-42
2024/01/09 10:26:42;;;;;;;7.57;5.25;;;15.10;82.30;;;;;;5092654;28;20081;-43
2024/01/09 10:29:13;;;;;;;7.90;5.07;;;15.20;82.30;;;;;;5093066;28;20084;-42
2024/01/09 10:31:44;;;;;;;7.68;5.22;;;15.20;82.30;;;;;;5092744;28;20021;-44
2024/01/09 10:34:10;;;;;;;6.50;4.72;;;15.20;82.30;;;;;;5092367;28;20028;-41
2024/01/09 10:36:36;;;;;;;7.32;5.38;;;15.20;82.20;;;;;;5092130;28;20024;-43
2024/01/09 10:39:06;;;;;;;7.28;5.00;;;15.30;82.20;;;;;;5092320;28;20476;-44
2024/01/09 10:41:32;;;;;;;8.25;5.47;;;15.30;82.00;;;;;;5092757;28;20016;-43
2024/01/09 10:44:02;;;;;;;7.03;4.90;;;15.30;82.00;;;;;;5092334;28;20032;-43
2024/01/09 10:46:31;;;;;;;7.65;5.25;;;15.40;82.00;;;;;;5092430;28;20028;-43
2024/01/09 10:48:58;;;;;;;6.88;5.18;;;15.40;81.80;;;;;;5092501;28;20020;-43
2024/01/09 10:51:24;;;;;;;9.10;5.47;;;15.50;81.80;;;;;;5092231;28;20032;-44
2024/01/09 10:53:55;;;;;;;8.57;4.95;;;15.50;81.80;;;;;;5091910;28;20022;-44
2024/01/09 10:56:23;;;;;;;7.45;5.18;;;15.60;81.80;;;;;;5091831;28;20537;-44
2024/01/09 10:58:51;;;;;;;8.02;5.30;;;15.60;81.60;;;;;;5092279;28;20028;-43
2024/01/09 11:01:17;;;;;;;8.63;5.20;;;15.60;81.60;;;;;;5093037;28;20095;-44
2024/01/09 11:03:43;;;;;;;7.32;5.35;;;15.60;81.40;;;;;;5091904;28;20087;-44
2024/01/09 11:06:09;;;;;;;8.50;5.53;;;15.70;81.40;;;;;;5091701;28;20028;-44
2024/01/09 11:08:36;;;;;;;7.15;4.90;;;15.70;81.30;;;;;;5091728;28;20020;-43
2024/01/09 11:11:09;;;;;;;7.82;5.15;;;15.70;82.00;;;;;;5091615;28;20031;-43
2024/01/09 11:13:39;;;;;;;7.93;5.28;;;15.80;81.30;;;;;;5091894;28;20456;-44
2024/01/09 11:16:08;;;;;;;7.80;4.82;;;15.80;81.10;;;;;;5091449;28;20085;-43
2024/01/09 11:18:35;;;;;;;7.75;5.30;;;15.80;81.00;;;;;;5091520;28;20031;-44
2024/01/09 11:21:02;;;;;;;6.60;5.15;;;15.90;80.90;;;;;;5091571;28;20024;-40
2024/01/09 11:23:43;;;;;;;8.75;5.28;;;15.90;80.80;;;;;;5091271;28;20491;-44
2024/01/09 11:26:09;;;;;;;7.30;5.13;;;15.90;80.60;;;;;;5091408;28;20032;-43
2024/01/09 11:28:36;;;;;;;6.47;4.70;;;16.00;80.60;;;;;;5091390;28;20063;-44
2024/01/09 11:31:06;;;;;;;8.43;5.47;;;16.00;80.50;;;;;;5091527;28;20028;-44
2024/01/09 11:33:32;;;;;;;9.15;5.43;;;16.10;80.20;;;;;;5091454;28;20056;-46
2024/01/09 11:36:07;;;;;;;8.13;5.53;;;16.10;79.90;;;;;;5090673;28;20028;-44
2024/01/09 11:38:33;;;;;;;7.63;5.45;;;16.20;79.90;;;;;;5091293;28;20499;-44
2024/01/09 11:41:06;;;;;;;8.13;5.53;;;16.20;79.80;;;;;;5091392;28;20023;-43
2024/01/09 11:44:00;;;;;;;11.45;6.85;;;16.20;79.70;;;;;;5091959;28;20040;-43
2024/01/09 11:46:28;;;;;;;13.33;8.20;;;16.20;76.70;;;;;;5092573;28;20028;-41
2024/01/09 11:48:54;;;;;;;12.68;8.23;;;16.20;72.90;;;;;;5092716;28;20261;-41
2024/01/09 11:51:23;;;;;;;10.60;7.53;;;16.10;72.20;;;;;;5091275;28;20432;-42
2024/01/09 11:53:50;;;;;;;13.57;8.30;;;16.10;72.10;;;;;;5091161;28;20016;-42
2024/01/09 11:56:16;;;;;;;12.40;8.00;;;16.10;72.40;;;;;;5091146;28;20020;-40
2024/01/09 11:58:44;;;;;;;11.45;7.60;;;16.10;72.70;;;;;;5089730;28;20505;-40
2024/01/09 12:01:13;;;;;;;11.35;7.55;;;16.00;73.00;;;;;;5091225;28;20099;-43
2024/01/09 12:03:39;;;;;;;12.40;7.90;;;16.00;73.30;;;;;;5090955;28;20020;-43
2024/01/09 12:06:05;;;;;;;13.27;8.13;;;16.00;73.60;;;;;;5091349;28;20024;-43
2024/01/09 12:08:33;;;;;;;12.38;7.80;;;16.00;73.80;;;;;;5091316;28;20023;-41
2024/01/09 12:11:00;;;;;;;12.25;7.65;;;16.00;74.00;;;;;;5091885;28;20028;-43
2024/01/09 12:13:26;;;;;;;12.25;7.50;;;16.00;74.10;;;;;;5091165;28;20020;-43
2024/01/09 12:15:52;;;;;;;11.68;7.45;;;16.10;74.20;;;;;;5091073;28;20478;-44
2024/01/09 12:18:17;;;;;;;12.70;7.25;;;16.10;74.10;;;;;;5092111;28;20069;-43
2024/01/09 12:20:43;;;;;;;10.90;6.63;;;16.10;74.10;;;;;;5092259;28;20039;-43
2024/01/09 12:23:09;;;;;;;9.75;6.65;;;16.10;74.90;;;;;;5091110;28;20032;-43
2024/01/09 12:25:35;;;;;;;11.35;6.85;;;16.10;74.10;;;;;;5091551;28;20040;-43
2024/01/09 12:28:02;;;;;;;11.52;7.07;;;16.10;74.10;;;;;;5091566;28;20126;-41
2024/01/09 12:30:31;;;;;;;11.98;7.22;;;16.20;74.20;;;;;;5092139;28;20025;-43
2024/01/09 12:32:58;;;;;;;12.20;6.75;;;16.20;74.20;;;;;;5090788;28;20020;-44
2024/01/09 12:35:24;;;;;;;10.52;6.55;;;16.20;74.10;;;;;;5090819;28;20233;-41
2024/01/09 12:37:50;;;;;;;10.60;6.22;;;16.20;74.10;;;;;;5091564;28;20390;-44
2024/01/09 12:40:19;;;;;;;14.00;7.63;;;16.20;73.60;;;;;;5091182;28;20043;-45